createdAt,value
2023-03-30T00:01:00.679Z,100535.09
2023-03-30T00:03:28.385Z,100539.06
2023-03-30T00:05:58.926Z,100531.03
2023-03-30T00:08:28.325Z,100521.47
2023-03-30T00:11:03.928Z,100512.66
2023-03-30T00:13:30.635Z,100516.63
2023-03-30T00:15:57.080Z,100502.50
2023-03-30T00:18:23.762Z,100487.00
2023-03-30T00:20:51.845Z,100499.94
2023-03-30T00:23:19.038Z,100497.56
2023-03-30T00:25:45.791Z,100489.31
2023-03-30T00:28:12.260Z,100482.13
2023-03-30T00:30:39.101Z,100487.22
2023-03-30T00:33:05.650Z,100479.59
2023-03-30T00:35:32.457Z,100473.63
2023-03-30T00:38:03.306Z,100467.38
2023-03-30T00:40:31.568Z,100480.44
2023-03-30T00:43:07.906Z,100473.63
2023-03-30T00:45:36.533Z,100463.41
2023-03-30T00:48:17.707Z,100465.25
2023-03-30T00:51:02.633Z,100457.44
2023-03-30T00:53:35.281Z,100441.09
2023-03-30T00:56:07.591Z,100428.38
2023-03-30T00:58:35.603Z,100428.38
2023-03-30T01:01:04.186Z,100432.47
2023-03-30T01:03:32.707Z,100431.38
2023-03-30T01:06:01.681Z,100422.97
2023-03-30T01:08:34.937Z,100415.25
2023-03-30T01:11:02.330Z,100408.09
2023-03-30T01:13:30.002Z,100411.75
2023-03-30T01:16:28.882Z,100398.13
2023-03-30T01:19:29.487Z,100397.31
2023-03-30T01:22:15.537Z,100382.28
2023-03-30T01:25:15.119Z,100372.09
2023-03-30T01:28:13.269Z,100372.63
2023-03-30T01:30:51.898Z,100363.78
2023-03-30T01:33:24.973Z,100351.78
2023-03-30T01:36:15.814Z,100352.44
2023-03-30T01:39:16.705Z,100349.97
2023-03-30T01:41:52.336Z,100340.78
2023-03-30T01:44:31.096Z,100343.66
2023-03-30T01:47:09.915Z,100339.28
2023-03-30T01:49:45.102Z,100332.25
2023-03-30T01:52:28.663Z,100322.72
2023-03-30T01:55:04.690Z,100324.84
2023-03-30T01:57:39.665Z,100310.41
2023-03-30T02:00:17.688Z,100306.47
2023-03-30T02:02:49.418Z,100295.13
2023-03-30T02:05:18.104Z,100290.47
2023-03-30T02:07:51.488Z,100295.81
2023-03-30T02:10:20.176Z,100287.28
2023-03-30T02:12:46.997Z,100287.50
2023-03-30T02:15:15.344Z,100287.38
2023-03-30T02:17:42.422Z,100273.03
2023-03-30T02:20:10.591Z,100274.78
2023-03-30T02:22:37.183Z,100273.69
2023-03-30T02:25:04.067Z,100263.53
2023-03-30T02:27:31.874Z,100268.03
2023-03-30T02:29:58.275Z,100257.22
2023-03-30T02:32:27.457Z,100245.28
2023-03-30T02:35:07.216Z,100246.81
2023-03-30T02:37:54.667Z,100244.50
2023-03-30T02:40:36.550Z,100237.53
2023-03-30T02:43:11.558Z,100223.53
2023-03-30T02:45:53.932Z,100232.41
2023-03-30T02:48:32.483Z,100240.72
2023-03-30T02:51:12.479Z,100237.34
2023-03-30T02:53:41.789Z,100239.47
2023-03-30T02:56:24.319Z,100239.47
2023-03-30T02:58:54.884Z,100236.13
2023-03-30T03:01:43.667Z,100223.88
2023-03-30T03:04:11.673Z,100228.19
2023-03-30T03:06:38.996Z,100225.19
2023-03-30T03:09:05.663Z,100216.53
2023-03-30T03:11:32.093Z,100220.09
2023-03-30T03:13:59.412Z,100226.84
2023-03-30T03:16:25.928Z,100218.44
2023-03-30T03:18:52.591Z,100214.38
2023-03-30T03:21:19.021Z,100208.00
2023-03-30T03:23:48.185Z,100212.63
2023-03-30T03:26:14.636Z,100216.47
2023-03-30T03:28:41.212Z,100212.63
2023-03-30T03:31:10.238Z,100204.53
2023-03-30T03:33:36.919Z,100205.16
2023-03-30T03:36:04.111Z,100203.44
2023-03-30T03:38:30.814Z,100206.13
2023-03-30T03:40:58.817Z,100207.88
2023-03-30T03:43:26.017Z,100205.53
2023-03-30T03:45:52.781Z,100198.09
2023-03-30T03:48:21.729Z,100190.09
2023-03-30T03:50:53.397Z,100183.97
2023-03-30T03:53:20.568Z,100170.91
2023-03-30T03:55:47.327Z,100184.97
2023-03-30T03:58:14.472Z,100176.75
2023-03-30T04:00:41.075Z,100178.94
2023-03-30T04:03:08.963Z,100178.94
2023-03-30T04:05:36.048Z,100179.50
2023-03-30T04:08:02.787Z,100173.47
2023-03-30T04:10:29.171Z,100180.31
2023-03-30T04:12:59.541Z,100181.56
2023-03-30T04:15:26.015Z,100171.06
2023-03-30T04:17:58.060Z,100165.88
2023-03-30T04:20:29.090Z,100163.41
2023-03-30T04:22:55.758Z,100156.78
2023-03-30T04:25:25.732Z,100146.69
2023-03-30T04:27:53.010Z,100138.47
2023-03-30T04:30:20.369Z,100137.59
2023-03-30T04:32:54.637Z,100138.31
2023-03-30T04:35:21.120Z,100140.22
2023-03-30T04:37:52.294Z,100144.19
2023-03-30T04:40:19.649Z,100153.00
2023-03-30T04:42:49.937Z,100154.78
2023-03-30T04:45:20.588Z,100153.00
2023-03-30T04:47:47.401Z,100151.84
2023-03-30T04:50:14.235Z,100155.28
2023-03-30T04:52:41.046Z,100149.19
2023-03-30T04:55:09.721Z,100130.59
2023-03-30T04:57:36.172Z,100131.81
2023-03-30T05:00:05.931Z,100134.94
2023-03-30T05:02:32.370Z,100140.16
2023-03-30T05:04:58.853Z,100136.06
2023-03-30T05:07:25.612Z,100141.03
2023-03-30T05:09:52.539Z,100148.00
2023-03-30T05:12:18.940Z,100149.03
2023-03-30T05:14:45.469Z,100157.34
2023-03-30T05:17:12.192Z,100137.16
2023-03-30T05:19:38.564Z,100129.59
2023-03-30T05:22:04.926Z,100142.22
2023-03-30T05:24:31.322Z,100130.19
2023-03-30T05:26:57.718Z,100130.66
2023-03-30T05:29:24.115Z,100119.81
2023-03-30T05:31:50.540Z,100120.88
2023-03-30T05:34:17.067Z,100120.13
2023-03-30T05:36:43.933Z,100116.88
2023-03-30T05:39:10.426Z,100123.72
2023-03-30T05:41:36.892Z,100113.00
2023-03-30T05:44:04.842Z,100114.22
2023-03-30T05:46:31.287Z,100120.50
2023-03-30T05:48:57.815Z,100116.59
2023-03-30T05:51:24.756Z,100117.63
2023-03-30T05:53:51.211Z,100114.38
2023-03-30T05:56:25.093Z,100113.91
2023-03-30T05:58:51.749Z,100123.31
2023-03-30T06:01:18.128Z,100123.75
2023-03-30T06:03:44.761Z,100126.28
2023-03-30T06:06:12.164Z,100125.06
2023-03-30T06:08:39.412Z,100113.91
2023-03-30T06:11:06.928Z,100104.09
2023-03-30T06:13:33.666Z,100107.25
2023-03-30T06:16:02.904Z,100110.63
2023-03-30T06:18:29.876Z,100107.81
2023-03-30T06:20:56.329Z,100113.28
2023-03-30T06:23:23.036Z,100121.44
2023-03-30T06:25:53.057Z,100123.06
2023-03-30T06:28:20.448Z,100117.66
2023-03-30T06:30:48.978Z,100112.59
2023-03-30T06:33:16.479Z,100112.41
2023-03-30T06:35:47.844Z,100123.13
2023-03-30T06:38:15.263Z,100127.69
2023-03-30T06:40:41.963Z,100121.75
2023-03-30T06:43:09.271Z,100121.69
2023-03-30T06:45:35.788Z,100112.41
2023-03-30T06:48:02.985Z,100125.56
2023-03-30T06:50:29.460Z,100123.13
2023-03-30T06:52:55.967Z,100121.63
2023-03-30T06:55:22.414Z,100125.22
2023-03-30T06:57:48.812Z,100113.75
2023-03-30T07:00:15.476Z,100115.06
2023-03-30T07:02:42.399Z,100111.81
2023-03-30T07:05:09.736Z,100107.72
2023-03-30T07:07:36.514Z,100110.41
2023-03-30T07:10:10.327Z,100106.56
2023-03-30T07:12:38.129Z,100104.50
2023-03-30T07:15:07.373Z,100106.44
2023-03-30T07:17:34.845Z,100119.81
2023-03-30T07:20:01.894Z,100112.28
2023-03-30T07:22:28.328Z,100114.78
2023-03-30T07:24:55.390Z,100116.03
2023-03-30T07:27:25.470Z,100114.31
2023-03-30T07:29:52.275Z,100116.25
2023-03-30T07:32:19.383Z,100126.19
2023-03-30T07:34:46.164Z,100121.94
2023-03-30T07:37:19.997Z,100125.28
2023-03-30T07:39:47.873Z,100117.31
2023-03-30T07:42:14.534Z,100114.63
2023-03-30T07:44:41.063Z,100124.88
2023-03-30T07:47:07.529Z,100121.66
2023-03-30T07:49:33.997Z,100124.41
2023-03-30T07:52:01.448Z,100114.88
2023-03-30T07:54:27.929Z,100126.91
2023-03-30T07:56:54.404Z,100119.72
2023-03-30T07:59:21.923Z,100111.97
2023-03-30T08:01:50.314Z,100114.75
2023-03-30T08:04:17.939Z,100118.59
2023-03-30T08:06:45.014Z,100117.38
2023-03-30T08:09:12.714Z,100115.84
2023-03-30T08:11:39.421Z,100121.38
2023-03-30T08:14:06.056Z,100128.22
2023-03-30T08:16:32.535Z,100127.34
2023-03-30T08:18:59.472Z,100124.22
2023-03-30T08:21:26.316Z,100130.56
2023-03-30T08:23:53.618Z,100127.50
2023-03-30T08:26:20.009Z,100125.63
2023-03-30T08:28:46.447Z,100136.31
2023-03-30T08:31:12.998Z,100131.88
2023-03-30T08:33:39.730Z,100143.41
2023-03-30T08:36:06.180Z,100141.50
2023-03-30T08:38:32.893Z,100135.81
2023-03-30T08:40:59.288Z,100140.81
2023-03-30T08:43:33.427Z,100135.97
2023-03-30T08:46:01.569Z,100132.28
2023-03-30T08:48:32.476Z,100141.06
2023-03-30T08:51:08.422Z,100137.78
2023-03-30T08:53:34.853Z,100131.22
2023-03-30T08:56:26.128Z,100133.41
2023-03-30T08:59:08.387Z,100139.47
2023-03-30T09:01:48.492Z,100134.84
2023-03-30T09:04:24.435Z,100141.28
2023-03-30T09:06:52.843Z,100144.47
2023-03-30T09:09:21.530Z,100144.38
2023-03-30T09:12:06.862Z,100138.97
2023-03-30T09:14:40.738Z,100137.72
2023-03-30T09:17:12.879Z,100138.59
2023-03-30T09:19:52.721Z,100115.63
2023-03-30T09:22:19.805Z,100136.84
2023-03-30T09:24:46.753Z,100124.88
2023-03-30T09:27:25.176Z,100123.19
2023-03-30T09:29:54.586Z,100132.88
2023-03-30T09:32:31.509Z,100148.44
2023-03-30T09:35:03.189Z,100144.69
2023-03-30T09:37:29.777Z,100129.22
2023-03-30T09:39:59.000Z,100145.66
2023-03-30T09:42:44.928Z,100148.94
2023-03-30T09:45:23.631Z,100142.75
2023-03-30T09:47:50.286Z,100142.81
2023-03-30T09:50:19.796Z,100143.44
2023-03-30T09:53:03.443Z,100149.81
2023-03-30T09:55:35.196Z,100155.13
2023-03-30T09:58:13.757Z,100143.44
2023-03-30T10:00:40.462Z,100160.88
2023-03-30T10:03:07.757Z,100135.09
2023-03-30T10:05:36.082Z,100147.63
2023-03-30T10:08:05.249Z,100144.50
2023-03-30T10:10:38.513Z,100150.72
2023-03-30T10:13:19.733Z,100144.13
2023-03-30T10:15:48.635Z,100147.56
2023-03-30T10:18:18.095Z,100141.91
2023-03-30T10:20:51.568Z,100137.94
2023-03-30T10:23:19.657Z,100139.91
2023-03-30T10:25:50.142Z,100133.53
2023-03-30T10:28:30.886Z,100139.94
2023-03-30T10:31:00.185Z,100131.56
2023-03-30T10:33:28.191Z,100134.00
2023-03-30T10:35:56.310Z,100136.75
2023-03-30T10:38:23.379Z,100149.03
2023-03-30T10:40:55.700Z,100141.16
2023-03-30T10:43:26.152Z,100136.91
2023-03-30T10:45:54.701Z,100160.69
2023-03-30T10:48:58.811Z,100182.31
2023-03-30T10:51:31.350Z,100184.00
2023-03-30T10:54:03.862Z,100187.03
2023-03-30T10:56:39.079Z,100198.06
2023-03-30T10:59:10.867Z,100189.34
2023-03-30T11:01:49.820Z,100187.03
2023-03-30T11:04:28.572Z,100188.66
2023-03-30T11:06:57.965Z,100196.88
2023-03-30T11:09:28.562Z,100192.38
2023-03-30T11:12:02.175Z,100196.31
2023-03-30T11:14:47.604Z,100205.13
2023-03-30T11:17:21.378Z,100195.59
2023-03-30T11:19:51.797Z,100200.41
2023-03-30T11:22:41.948Z,100206.09
2023-03-30T11:25:19.589Z,100202.28
2023-03-30T11:27:56.417Z,100202.78
2023-03-30T11:30:33.600Z,100197.59
2023-03-30T11:33:12.742Z,100205.19
2023-03-30T11:35:51.633Z,100197.41
2023-03-30T11:38:21.807Z,100186.91
2023-03-30T11:41:14.857Z,100186.00
2023-03-30T11:43:41.506Z,100194.47
2023-03-30T11:46:08.788Z,100202.88
2023-03-30T11:49:16.347Z,100191.56
2023-03-30T11:52:07.194Z,100206.81
2023-03-30T11:55:04.224Z,100208.72
2023-03-30T11:57:37.996Z,100209.91
2023-03-30T12:00:26.699Z,100203.91
2023-03-30T12:03:08.803Z,100204.94
2023-03-30T12:05:39.355Z,100215.53
2023-03-30T12:08:36.912Z,100209.38
2023-03-30T12:11:17.315Z,100220.97
2023-03-30T12:13:51.289Z,100218.22
2023-03-30T12:16:40.715Z,100223.44
2023-03-30T12:19:17.676Z,100225.59
2023-03-30T12:22:24.541Z,100211.94
2023-03-30T12:25:01.389Z,100224.78
2023-03-30T12:27:29.060Z,100224.50
2023-03-30T12:30:12.265Z,100230.53
2023-03-30T12:32:38.663Z,100238.25
2023-03-30T12:35:43.968Z,100240.63
2023-03-30T12:38:17.344Z,100230.19
2023-03-30T12:40:49.249Z,100251.38
2023-03-30T12:44:02.303Z,100233.63
2023-03-30T12:46:35.895Z,100218.63
2023-03-30T12:49:22.282Z,100228.56
2023-03-30T12:51:58.138Z,100228.72
2023-03-30T12:54:42.621Z,100221.34
2023-03-30T12:57:18.055Z,100213.88
2023-03-30T13:00:09.604Z,100223.19
2023-03-30T13:02:57.530Z,100222.97
2023-03-30T13:05:32.085Z,100213.56
2023-03-30T13:08:03.688Z,100211.38
2023-03-30T13:10:30.231Z,100220.06
2023-03-30T13:12:58.265Z,100223.75
2023-03-30T13:15:57.917Z,100215.75
2023-03-30T13:18:32.119Z,100215.84
2023-03-30T13:21:16.028Z,100213.91
2023-03-30T13:23:45.321Z,100208.63
2023-03-30T13:26:34.309Z,100216.97
2023-03-30T13:29:11.664Z,100213.47
2023-03-30T13:31:51.343Z,100208.38
2023-03-30T13:35:06.138Z,100211.72
2023-03-30T13:38:07.601Z,100204.72
2023-03-30T13:40:41.837Z,100205.28
2023-03-30T13:43:24.724Z,100199.22
2023-03-30T13:46:17.195Z,100210.00
2023-03-30T13:48:59.606Z,100204.59
2023-03-30T13:51:27.837Z,100197.00
2023-03-30T13:53:57.940Z,100208.06
2023-03-30T13:56:25.899Z,100203.41
2023-03-30T13:59:01.286Z,100202.41
2023-03-30T14:01:27.954Z,100196.25
2023-03-30T14:03:58.666Z,100201.19
2023-03-30T14:06:30.211Z,100206.59
2023-03-30T14:09:09.621Z,100209.75
2023-03-30T14:11:48.464Z,100200.44
2023-03-30T14:14:31.546Z,100207.22
2023-03-30T14:16:59.152Z,100208.97
2023-03-30T14:19:28.411Z,100206.84
2023-03-30T14:22:16.200Z,100209.72
2023-03-30T14:24:56.703Z,100206.03
2023-03-30T14:27:23.140Z,100205.28
2023-03-30T14:29:51.311Z,100212.66
2023-03-30T14:32:21.271Z,100216.06
2023-03-30T14:34:49.579Z,100227.28
2023-03-30T14:37:17.269Z,100226.75
2023-03-30T14:39:53.943Z,100224.38
2023-03-30T14:42:22.279Z,100216.88
2023-03-30T14:44:50.878Z,100212.22
2023-03-30T14:47:25.877Z,100215.44
2023-03-30T14:49:54.931Z,100212.41
2023-03-30T14:52:23.516Z,100215.97
2023-03-30T14:55:05.136Z,100214.50
2023-03-30T14:57:38.131Z,100213.78
2023-03-30T15:00:24.622Z,100227.91
2023-03-30T15:02:57.036Z,100235.09
2023-03-30T15:05:25.977Z,100226.13
2023-03-30T15:07:52.872Z,100219.75
2023-03-30T15:10:26.803Z,100215.69
2023-03-30T15:12:55.674Z,100221.84
2023-03-30T15:15:26.750Z,100217.56
2023-03-30T15:17:53.245Z,100218.84
2023-03-30T15:20:19.790Z,100202.19
2023-03-30T15:22:51.710Z,100201.97
2023-03-30T15:25:21.361Z,100215.59
2023-03-30T15:28:15.530Z,100218.22
2023-03-30T15:30:46.636Z,100208.28
2023-03-30T15:33:41.080Z,100216.72
2023-03-30T15:36:17.573Z,100214.03
2023-03-30T15:38:51.332Z,100215.44
2023-03-30T15:41:18.835Z,100212.38
2023-03-30T15:43:57.171Z,100213.78
2023-03-30T15:46:24.675Z,100219.00
2023-03-30T15:48:55.960Z,100217.59
2023-03-30T15:51:45.693Z,100218.09
2023-03-30T15:54:34.533Z,100225.34
2023-03-30T15:57:13.228Z,100221.13
2023-03-30T15:59:44.131Z,100219.06
2023-03-30T16:02:16.470Z,100220.34
2023-03-30T16:04:42.936Z,100215.75
2023-03-30T16:07:22.289Z,100224.16
2023-03-30T16:09:48.936Z,100216.13
2023-03-30T16:12:17.463Z,100217.09
2023-03-30T16:14:44.189Z,100221.22
2023-03-30T16:17:13.101Z,100216.94
2023-03-30T16:19:43.177Z,100212.22
2023-03-30T16:22:10.981Z,100218.22
2023-03-30T16:24:37.599Z,100211.28
2023-03-30T16:27:05.869Z,100209.38
2023-03-30T16:29:32.843Z,100210.88
2023-03-30T16:31:59.611Z,100214.63
2023-03-30T16:34:26.626Z,100211.09
2023-03-30T16:36:53.328Z,100216.41
2023-03-30T16:39:22.280Z,100214.53
2023-03-30T16:41:49.565Z,100220.44
2023-03-30T16:44:16.846Z,100218.84
2023-03-30T16:46:43.462Z,100211.81
2023-03-30T16:49:18.550Z,100212.44
2023-03-30T16:51:45.404Z,100221.38
2023-03-30T16:54:27.183Z,100222.84
2023-03-30T16:56:56.493Z,100220.34
2023-03-30T16:59:25.783Z,100222.31
2023-03-30T17:01:52.230Z,100230.41
2023-03-30T17:04:18.986Z,100230.13
2023-03-30T17:06:45.593Z,100227.13
2023-03-30T17:09:17.517Z,100219.31
2023-03-30T17:11:44.753Z,100232.25
2023-03-30T17:14:11.189Z,100228.00
2023-03-30T17:16:37.766Z,100232.09
2023-03-30T17:19:04.232Z,100236.53
2023-03-30T17:21:30.684Z,100239.69
2023-03-30T17:23:57.823Z,100243.00
2023-03-30T17:26:24.274Z,100239.28
2023-03-30T17:28:52.146Z,100243.31
2023-03-30T17:31:20.813Z,100250.38
2023-03-30T17:33:48.119Z,100258.22
2023-03-30T17:36:21.088Z,100248.88
2023-03-30T17:38:48.108Z,100257.72
2023-03-30T17:41:15.568Z,100252.72
2023-03-30T17:43:43.502Z,100261.91
2023-03-30T17:46:12.419Z,100249.91
2023-03-30T17:48:39.011Z,100256.09
2023-03-30T17:51:06.005Z,100255.56
2023-03-30T17:53:33.183Z,100257.41
2023-03-30T17:55:59.668Z,100265.00
2023-03-30T17:58:34.334Z,100266.72
2023-03-30T18:01:02.606Z,100269.72
2023-03-30T18:03:32.197Z,100267.97
2023-03-30T18:06:00.386Z,100275.47
2023-03-30T18:08:27.552Z,100270.25
2023-03-30T18:10:58.214Z,100267.38
2023-03-30T18:13:26.552Z,100273.19
2023-03-30T18:15:55.125Z,100266.91
2023-03-30T18:18:24.840Z,100270.19
2023-03-30T18:20:56.084Z,100269.03
2023-03-30T18:23:23.252Z,100270.94
2023-03-30T18:25:49.952Z,100279.88
2023-03-30T18:28:26.836Z,100276.75
2023-03-30T18:30:55.327Z,100283.47
2023-03-30T18:33:21.943Z,100282.97
2023-03-30T18:35:49.761Z,100280.38
2023-03-30T18:38:18.499Z,100282.91
2023-03-30T18:40:47.138Z,100283.00
2023-03-30T18:43:13.728Z,100287.72
2023-03-30T18:45:42.482Z,100290.34
2023-03-30T18:48:12.337Z,100292.78
2023-03-30T18:50:44.598Z,100289.75
2023-03-30T18:53:16.085Z,100295.84
2023-03-30T18:56:00.234Z,100294.31
2023-03-30T18:58:33.449Z,100290.97
2023-03-30T19:01:00.380Z,100292.50
2023-03-30T19:03:28.251Z,100295.53
2023-03-30T19:05:54.686Z,100292.44
2023-03-30T19:08:23.689Z,100285.91
2023-03-30T19:10:52.434Z,100302.22
2023-03-30T19:13:20.183Z,100290.31
2023-03-30T19:15:47.551Z,100293.31
2023-03-30T19:18:15.608Z,100302.22
2023-03-30T19:20:42.171Z,100296.50
2023-03-30T19:23:11.851Z,100302.44
2023-03-30T19:25:38.679Z,100297.38
2023-03-30T19:28:06.178Z,100300.84
2023-03-30T19:30:36.001Z,100291.44
2023-03-30T19:33:06.533Z,100300.06
2023-03-30T19:35:33.070Z,100293.66
2023-03-30T19:37:59.637Z,100292.00
2023-03-30T19:40:26.093Z,100292.44
2023-03-30T19:42:52.698Z,100295.34
2023-03-30T19:45:21.082Z,100301.03
2023-03-30T19:47:47.740Z,100301.25
2023-03-30T19:50:17.848Z,100302.75
2023-03-30T19:52:48.411Z,100320.28
2023-03-30T19:55:14.990Z,100309.69
2023-03-30T19:57:41.383Z,100310.19
2023-03-30T20:00:12.679Z,100316.41
2023-03-30T20:02:39.834Z,100314.91
2023-03-30T20:05:06.822Z,100317.75
2023-03-30T20:07:33.243Z,100314.63
2023-03-30T20:12:26.123Z,100301.31
2023-03-30T20:14:52.793Z,100299.78
2023-03-30T20:17:21.900Z,100295.03
2023-03-30T20:19:48.324Z,100294.31
2023-03-30T20:22:14.784Z,100299.22
2023-03-30T20:24:42.095Z,100295.94
2023-03-30T20:27:09.782Z,100296.25
2023-03-30T20:29:36.773Z,100290.13
2023-03-30T20:32:03.514Z,100279.50
2023-03-30T20:34:31.497Z,100281.06
2023-03-30T20:36:57.965Z,100271.50
2023-03-30T20:39:27.248Z,100269.56
2023-03-30T20:41:57.971Z,100269.44
2023-03-30T20:44:31.834Z,100275.69
2023-03-30T20:46:58.803Z,100273.31
2023-03-30T20:49:25.717Z,100274.34
2023-03-30T20:51:53.094Z,100264.41
2023-03-30T20:54:20.071Z,100267.19
2023-03-30T20:56:46.644Z,100260.53
2023-03-30T20:59:13.117Z,100257.25
2023-03-30T21:01:40.832Z,100261.41
2023-03-30T21:04:08.017Z,100253.22
2023-03-30T21:06:35.153Z,100255.47
2023-03-30T21:09:03.701Z,100259.63
2023-03-30T21:11:33.657Z,100250.16
2023-03-30T21:14:01.491Z,100243.16
2023-03-30T21:16:28.051Z,100245.84
2023-03-30T21:18:54.610Z,100246.00
2023-03-30T21:21:21.012Z,100242.44
2023-03-30T21:23:47.397Z,100236.47
2023-03-30T21:26:13.976Z,100236.50
2023-03-30T21:28:41.367Z,100240.09
2023-03-30T21:31:09.429Z,100238.16
2023-03-30T21:33:36.942Z,100239.53
2023-03-30T21:36:04.608Z,100239.81
2023-03-30T21:38:31.455Z,100239.38
2023-03-30T21:41:04.519Z,100244.56
2023-03-30T21:43:33.246Z,100236.84
2023-03-30T21:46:01.935Z,100241.03
2023-03-30T21:48:29.758Z,100237.47
2023-03-30T21:51:17.305Z,100238.34
2023-03-30T21:53:44.997Z,100232.41
2023-03-30T21:56:11.939Z,100235.41
2023-03-30T21:58:38.767Z,100233.28
2023-03-30T22:01:12.386Z,100242.09
2023-03-30T22:03:40.657Z,100229.09
2023-03-30T22:06:08.343Z,100236.81
2023-03-30T22:08:35.369Z,100241.59
2023-03-30T22:11:04.423Z,100238.00
2023-03-30T22:13:31.506Z,100236.66
2023-03-30T22:16:06.902Z,100231.91
2023-03-30T22:18:34.189Z,100224.59
2023-03-30T22:21:01.401Z,100226.72
2023-03-30T22:23:27.791Z,100228.81
2023-03-30T22:25:54.251Z,100231.50
2023-03-30T22:28:21.374Z,100235.22
2023-03-30T22:30:48.280Z,100234.47
2023-03-30T22:33:14.982Z,100234.88
2023-03-30T22:35:43.310Z,100222.50
2023-03-30T22:38:10.634Z,100215.97
2023-03-30T22:40:39.386Z,100204.78
2023-03-30T22:43:06.209Z,100205.25
2023-03-30T22:45:32.739Z,100217.47
2023-03-30T22:47:59.396Z,100200.34
2023-03-30T22:50:27.503Z,100207.38
2023-03-30T22:52:55.851Z,100205.44
2023-03-30T22:55:23.022Z,100193.84
2023-03-30T22:57:54.658Z,100192.34
2023-03-30T23:00:21.907Z,100202.47
2023-03-30T23:02:49.542Z,100197.72
2023-03-30T23:05:17.032Z,100195.00
2023-03-30T23:07:44.209Z,100196.81
2023-03-30T23:10:14.720Z,100204.09
2023-03-30T23:12:41.833Z,100199.94
2023-03-30T23:15:09.870Z,100198.72
2023-03-30T23:17:36.764Z,100196.94
2023-03-30T23:20:05.356Z,100193.34
2023-03-30T23:22:31.756Z,100187.97
2023-03-30T23:24:58.135Z,100182.31
2023-03-30T23:27:24.565Z,100179.34
2023-03-30T23:29:52.633Z,100178.59
2023-03-30T23:32:19.025Z,100178.44
2023-03-30T23:34:45.567Z,100183.06
2023-03-30T23:37:12.355Z,100175.75
2023-03-30T23:39:39.017Z,100182.28
2023-03-30T23:42:05.811Z,100167.00
2023-03-30T23:44:32.355Z,100174.69
2023-03-30T23:46:58.746Z,100173.69
2023-03-30T23:49:25.142Z,100167.91
2023-03-30T23:51:51.673Z,100169.09
2023-03-30T23:54:18.250Z,100168.63
2023-03-30T23:56:46.940Z,100163.91
2023-03-30T23:59:13.441Z,100163.56
